Time;durP1;ratioP1;P1;durP2;ratioP2;P2;SDS_P1;SDS_P2;PMS_P1;PMS_P2;Temp;Humidity;BMP_temperature;BMP_pressure;BME280_temperature;BME280_humidity;BME280_pressure;Samples;Min_cycle;Max_cycle;Signal;HPM_P1;HPM_P2
2023/07/27 00:01:34;;;;;;;4.57;4.33;;;;;;;-145.94;65.97;76221.25;5135627;27;20184;-69
2023/07/27 00:04:01;;;;;;;5.33;4.93;;;;;;;-145.94;66.11;76217.19;5135497;27;20209;-69
2023/07/27 00:06:27;;;;;;;6.90;5.33;;;;;;;-145.94;65.99;76215.13;5135537;27;20184;-69
2023/07/27 00:08:54;;;;;;;6.13;5.23;;;;;;;-145.94;65.71;76215.13;5135787;27;20185;-69
2023/07/27 00:11:20;;;;;;;5.40;5.07;;;;;;;-145.94;65.70;76207.00;5135236;27;20185;-69
2023/07/27 00:13:47;;;;;;;5.37;5.17;;;;;;;-145.94;65.96;76200.88;5135029;27;20618;-69
2023/07/27 00:16:13;;;;;;;5.77;5.33;;;;;;;-145.94;65.31;76202.91;5135623;27;20199;-70
2023/07/27 00:18:39;;;;;;;5.63;5.33;;;;;;;-145.94;65.61;76196.78;5135492;27;20188;-70
2023/07/27 00:21:06;;;;;;;5.23;4.93;;;;;;;-145.94;65.33;76196.78;5135263;27;20234;-70
2023/07/27 00:23:32;;;;;;;5.13;4.73;;;;;;;-145.94;65.64;76196.78;5135157;27;20208;-70
2023/07/27 00:25:59;;;;;;;5.87;5.57;;;;;;;-145.94;65.64;76196.78;5135147;27;20195;-70
2023/07/27 00:28:30;;;;;;;4.90;4.80;;;;;;;-145.94;65.87;76188.63;5135753;27;20168;-70
2023/07/27 00:30:56;;;;;;;4.80;4.70;;;;;;;-145.94;65.78;76188.63;5134967;27;20233;-70
2023/07/27 00:33:23;;;;;;;4.83;4.80;;;;;;;-145.94;65.50;76194.75;5134937;27;20205;-70
2023/07/27 00:35:57;;;;;;;5.37;4.97;;;;;;;-145.94;65.70;76194.75;5116911;27;20204;-70
2023/07/27 00:38:26;;;;;;;4.90;4.70;;;;;;;-145.94;66.27;76194.75;5135160;27;20248;-70
2023/07/27 00:40:52;;;;;;;4.43;4.30;;;;;;;-145.94;66.06;76192.72;5135207;27;20218;-70
2023/07/27 00:43:18;;;;;;;5.57;5.27;;;;;;;-145.94;65.85;76198.81;5134807;27;20605;-70
2023/07/27 00:45:46;;;;;;;5.40;5.27;;;;;;;-145.94;65.78;76204.94;5116417;27;20185;-70
2023/07/27 00:48:13;;;;;;;5.37;5.10;;;;;;;-145.94;65.94;76200.88;5116357;27;20245;-70
2023/07/27 00:50:40;;;;;;;7.87;5.47;;;;;;;-145.94;65.60;76196.78;5117090;27;20200;-69
2023/07/27 00:53:08;;;;;;;5.93;5.63;;;;;;;-145.94;65.72;76192.72;5134594;27;20265;-69
2023/07/27 00:55:36;;;;;;;6.63;6.33;;;;;;;-145.94;65.62;76186.59;5134575;27;20204;-69
2023/07/27 00:58:02;;;;;;;6.40;6.13;;;;;;;-145.94;65.47;76174.38;5135166;27;20651;-69
2023/07/27 01:00:32;;;;;;;5.90;5.50;;;;;;;-145.94;65.11;76166.22;5134575;27;20181;-69
2023/07/27 01:03:00;;;;;;;5.73;5.33;;;;;;;-145.94;64.57;76153.97;5135001;27;20219;-69
2023/07/27 01:05:27;;;;;;;5.53;5.40;;;;;;;-145.94;64.21;76137.66;5116055;27;20283;-69
2023/07/27 01:07:54;;;;;;;5.70;5.50;;;;;;;-145.94;63.73;76123.41;5134464;27;20180;-69
2023/07/27 01:10:28;;;;;;;4.60;4.50;;;;;;;-145.94;62.83;76111.16;5134693;27;20702;-69
2023/07/27 01:13:04;;;;;;;5.43;5.30;;;;;;;-145.94;61.68;76088.72;5115950;27;20203;-69
2023/07/27 01:15:37;;;;;;;4.80;4.33;;;;;;;-145.94;60.89;76070.38;5115922;27;20208;-69
2023/07/27 01:18:25;;;;;;;4.20;4.00;;;;;;;-145.94;60.50;76050.00;5134915;27;20177;-69
2023/07/27 01:21:04;;;;;;;4.33;4.13;;;;;;;-145.94;59.73;76035.72;5134366;27;20177;-69
2023/07/27 01:23:49;;;;;;;4.83;4.50;;;;;;;-145.94;59.26;76021.44;5134357;27;20203;-69
2023/07/27 01:26:54;;;;;;;4.13;3.93;;;;;;;-145.94;59.25;76013.28;5134823;27;20177;-69
2023/07/27 01:29:46;;;;;;;4.93;4.63;;;;;;;-145.94;59.02;76001.06;5130296;28;20714;-69
2023/07/27 01:32:15;;;;;;;4.27;3.90;;;;;;;-145.94;58.13;75984.75;5115777;27;20201;-69
2023/07/27 01:34:46;;;;;;;3.70;3.60;;;;;;;-145.94;57.92;75976.59;5134075;28;20219;-69
2023/07/27 01:37:16;;;;;;;3.50;3.40;;;;;;;-145.94;57.85;75978.63;5134494;28;20180;-69
2023/07/27 01:39:48;;;;;;;6.23;4.47;;;;;;;-145.94;58.35;75978.63;5134129;28;20188;-69
2023/07/27 01:42:16;;;;;;;3.50;3.50;;;;;;;-145.94;58.48;75980.69;5134643;27;20169;-69
2023/07/27 01:44:43;;;;;;;3.70;3.70;;;;;;;-145.94;58.02;75984.75;5134084;28;20335;-69
2023/07/27 01:47:11;;;;;;;3.83;3.73;;;;;;;-145.94;58.38;75976.59;5115885;28;20185;-69
2023/07/27 01:49:39;;;;;;;3.67;3.57;;;;;;;-145.94;58.35;75978.63;5115604;28;20189;-69
2023/07/27 01:52:07;;;;;;;3.30;3.20;;;;;;;-145.94;58.26;75976.59;5134190;27;20249;-69
2023/07/27 01:54:35;;;;;;;3.70;3.50;;;;;;;-145.94;58.63;75972.53;5133860;28;20196;-69
2023/07/27 01:57:04;;;;;;;2.90;2.90;;;;;;;-145.94;58.60;75968.44;5115597;28;20192;-69
2023/07/27 01:59:30;;;;;;;3.53;3.53;;;;;;;-145.94;57.43;75962.34;5115558;28;20185;-69
2023/07/27 02:01:57;;;;;;;3.60;3.60;;;;;;;-145.94;57.31;75954.19;5115486;28;20184;-69
2023/07/27 02:04:24;;;;;;;3.17;3.17;;;;;;;-145.94;57.10;75948.06;5115603;28;20225;-69
2023/07/27 02:06:50;;;;;;;3.90;3.80;;;;;;;-145.94;57.13;75937.88;5134418;28;20199;-69
2023/07/27 02:09:17;;;;;;;5.43;4.00;;;;;;;-145.94;57.34;75939.91;5115457;28;20283;-69
2023/07/27 02:11:47;;;;;;;3.17;3.07;;;;;;;-145.94;57.86;75937.88;5115692;28;20192;-69
2023/07/27 02:14:37;;;;;;;3.33;3.23;;;;;;;-145.94;57.42;75939.91;5115306;28;20217;-70
2023/07/27 02:17:12;;;;;;;4.30;4.00;;;;;;;-145.94;57.41;75925.63;5107590;28;20207;-69
2023/07/27 02:19:42;;;;;;;3.90;3.80;;;;;;;-145.94;56.65;75917.47;5134079;28;20173;-69
2023/07/27 02:22:09;;;;;;;4.03;3.90;;;;;;;-145.94;57.06;75901.16;5115603;27;20585;-70
2023/07/27 02:24:36;;;;;;;4.33;4.03;;;;;;;-145.94;56.66;75903.22;5133951;28;20580;-69
2023/07/27 02:27:04;;;;;;;6.67;4.40;;;;;;;-145.94;56.57;75913.41;5115303;28;20275;-69
2023/07/27 02:29:30;;;;;;;5.17;3.57;;;;;;;-145.94;57.50;75917.47;5115100;28;20246;-70
2023/07/27 02:31:57;;;;;;;4.10;3.80;;;;;;;-145.94;57.74;75923.59;5133921;28;20217;-69
2023/07/27 02:34:23;;;;;;;4.37;3.90;;;;;;;-145.94;58.10;75927.66;5133613;27;20209;-69
2023/07/27 02:36:49;;;;;;;4.50;3.87;;;;;;;-145.94;58.75;75933.78;5118954;27;20574;-69
2023/07/27 02:39:16;;;;;;;4.40;4.23;;;;;;;-145.94;59.59;75935.81;5118928;27;20206;-69
2023/07/27 02:41:43;;;;;;;4.43;3.93;;;;;;;-145.94;59.82;75933.78;5118899;27;20192;-69
2023/07/27 02:44:16;;;;;;;7.23;4.40;;;;;;;-145.94;59.87;75943.97;5118748;27;20213;-69
2023/07/27 02:46:43;;;;;;;4.67;3.53;;;;;;;-145.94;60.89;75954.19;5118750;27;20654;-69
2023/07/27 02:49:09;;;;;;;8.80;4.07;;;;;;;-145.94;60.49;75958.25;5137122;27;20189;-70
2023/07/27 02:51:40;;;;;;;4.63;4.23;;;;;;;-145.94;61.75;75962.34;5118577;27;20192;-69
2023/07/27 02:54:07;;;;;;;4.20;4.20;;;;;;;-145.94;62.16;75972.53;5118444;27;20269;-69
2023/07/27 02:56:33;;;;;;;4.20;4.10;;;;;;;-145.94;62.28;75968.44;5118785;27;20185;-69
2023/07/27 02:59:00;;;;;;;4.70;4.33;;;;;;;-145.94;62.32;75974.56;5118470;27;20189;-70
2023/07/27 03:01:28;;;;;;;4.30;4.20;;;;;;;-145.94;63.06;75978.63;5119556;27;20244;-72
2023/07/27 03:04:00;;;;;;;5.53;5.30;;;;;;;-145.94;63.49;75992.91;5118964;27;20253;-71
2023/07/27 03:06:27;;;;;;;4.97;4.57;;;;;;;-145.94;63.64;75992.91;5118646;27;20197;-71
2023/07/27 03:08:56;;;;;;;4.57;4.47;;;;;;;-145.94;63.79;75997.00;5118797;27;20703;-72
2023/07/27 03:11:23;;;;;;;4.63;4.43;;;;;;;-145.94;64.36;75999.03;5119343;27;20196;-72
2023/07/27 03:13:51;;;;;;;4.80;4.60;;;;;;;-145.94;64.49;76005.16;5118086;27;20216;-72
2023/07/27 03:16:17;;;;;;;6.63;5.07;;;;;;;-145.94;64.69;76005.16;5135204;27;20207;-72
2023/07/27 03:18:44;;;;;;;4.77;4.63;;;;;;;-145.94;65.46;76011.25;5136855;27;20184;-72
2023/07/27 03:21:10;;;;;;;6.13;4.87;;;;;;;-145.94;65.39;76011.25;5136413;27;20229;-72
2023/07/27 03:23:37;;;;;;;4.80;4.40;;;;;;;-145.94;65.72;76019.41;5117958;27;20247;-72
2023/07/27 03:26:11;;;;;;;3.90;3.80;;;;;;;-145.94;65.96;76013.28;5117987;27;20599;-71
2023/07/27 03:28:38;;;;;;;3.90;3.80;;;;;;;-145.94;65.91;76019.41;5117940;27;20196;-71
2023/07/27 03:31:18;;;;;;;3.83;3.73;;;;;;;-145.94;66.36;76019.41;5136513;27;20306;-71
2023/07/27 03:33:45;;;;;;;4.00;3.90;;;;;;;-145.94;66.49;76031.66;5117741;27;20239;-71
2023/07/27 03:36:13;;;;;;;4.00;3.90;;;;;;;-145.94;66.58;76027.56;5117707;27;20577;-71
2023/07/27 03:38:40;;;;;;;4.30;4.07;;;;;;;-145.94;66.79;76031.66;5117670;27;20196;-71
2023/07/27 03:41:06;;;;;;;4.00;3.93;;;;;;;-145.94;66.92;76031.66;5117675;27;20238;-71
2023/07/27 03:43:33;;;;;;;3.73;3.63;;;;;;;-145.94;67.58;76033.69;5117537;27;20213;-71
2023/07/27 03:46:01;;;;;;;4.73;4.50;;;;;;;-145.94;67.80;76041.84;5117389;27;20185;-71
2023/07/27 03:48:27;;;;;;;4.87;4.60;;;;;;;-145.94;67.94;76039.81;5116606;27;20193;-70
2023/07/27 03:50:54;;;;;;;4.73;4.43;;;;;;;-145.94;68.43;76035.72;5117495;27;20192;-70
2023/07/27 03:53:21;;;;;;;5.23;4.97;;;;;;;-145.94;68.39;76045.91;5117339;27;20209;-70
2023/07/27 03:55:47;;;;;;;4.93;4.63;;;;;;;-145.94;68.76;76050.00;5117283;27;20253;-70
2023/07/27 03:58:13;;;;;;;5.43;4.80;;;;;;;-145.94;68.85;76050.00;5117358;27;20185;-70
2023/07/27 04:00:40;;;;;;;4.43;4.43;;;;;;;-145.94;69.37;76056.13;5117292;27;20556;-70
2023/07/27 04:03:07;;;;;;;4.00;4.00;;;;;;;-145.94;69.36;76052.03;5117232;27;20208;-70
2023/07/27 04:05:33;;;;;;;4.97;4.80;;;;;;;-145.94;69.75;76056.13;5136078;27;20276;-70
2023/07/27 04:08:00;;;;;;;6.33;5.83;;;;;;;-145.94;69.88;76054.06;5136085;27;20225;-70
2023/07/27 04:10:26;;;;;;;6.10;5.90;;;;;;;-145.94;69.73;76054.06;5117081;27;20192;-70
2023/07/27 04:12:54;;;;;;;7.23;6.60;;;;;;;-145.94;70.10;76054.06;5135920;27;20678;-70
2023/07/27 04:15:21;;;;;;;11.33;7.07;;;;;;;-145.94;70.31;76047.97;5135828;27;20253;-70
2023/07/27 04:17:47;;;;;;;7.23;6.83;;;;;;;-145.94;70.78;76052.03;5135322;27;20195;-71
2023/07/27 04:20:14;;;;;;;6.90;6.70;;;;;;;-145.94;70.56;76052.03;5135309;27;20184;-71
2023/07/27 04:22:40;;;;;;;7.77;7.30;;;;;;;-145.94;70.87;76052.03;5116742;27;20209;-71
2023/07/27 04:25:07;;;;;;;7.73;7.10;;;;;;;-145.94;71.07;76050.00;5117536;27;20189;-71
2023/07/27 04:27:34;;;;;;;7.37;7.13;;;;;;;-145.94;71.52;76047.97;5116738;27;20222;-71
2023/07/27 04:30:00;;;;;;;6.40;6.17;;;;;;;-145.94;71.42;76058.16;5135015;27;20199;-71
2023/07/27 04:32:27;;;;;;;7.03;6.67;;;;;;;-145.94;72.10;76050.00;5134967;27;20205;-72
2023/07/27 04:34:56;;;;;;;6.53;6.20;;;;;;;-145.94;72.16;76060.19;5116513;27;20224;-71
2023/07/27 04:37:23;;;;;;;6.03;5.73;;;;;;;-145.94;72.46;76056.13;5135191;27;20222;-71
2023/07/27 04:39:49;;;;;;;7.00;6.00;;;;;;;-145.94;72.87;76050.00;5134861;27;20188;-71
2023/07/27 04:42:16;;;;;;;5.37;5.13;;;;;;;-145.94;72.83;76062.22;5116362;27;20569;-71
2023/07/27 04:44:42;;;;;;;7.27;5.93;;;;;;;-145.94;73.31;76066.31;5116669;27;20665;-71
2023/07/27 04:47:09;;;;;;;7.73;6.70;;;;;;;-145.94;73.34;76062.22;5134779;27;20244;-71
2023/07/27 04:49:35;;;;;;;6.17;5.97;;;;;;;-145.94;73.59;76064.25;5134774;27;20241;-71
2023/07/27 04:52:02;;;;;;;7.20;6.90;;;;;;;-145.94;74.18;76076.50;5116211;27;20650;-72
2023/07/27 04:54:28;;;;;;;9.03;8.33;;;;;;;-145.94;74.00;76068.34;5134702;27;20180;-72
2023/07/27 04:56:54;;;;;;;15.67;9.63;;;;;;;-145.94;74.73;76072.44;5134554;27;20268;-72
2023/07/27 04:59:21;;;;;;;9.33;8.47;;;;;;;-145.94;74.62;76064.25;5134513;27;20188;-72
2023/07/27 05:01:47;;;;;;;9.47;8.77;;;;;;;-145.94;74.66;76058.16;5134639;27;20257;-73
2023/07/27 05:04:14;;;;;;;10.13;9.60;;;;;;;-145.94;74.70;76058.16;5134495;27;20201;-72
2023/07/27 05:06:40;;;;;;;10.00;9.60;;;;;;;-145.94;74.83;76047.97;5134784;27;20169;-72
2023/07/27 05:09:07;;;;;;;12.27;11.37;;;;;;;-145.94;74.89;76043.88;5134482;27;20177;-72
2023/07/27 05:11:36;;;;;;;13.17;11.90;;;;;;;-145.94;75.26;76047.97;5134932;27;20199;-73
2023/07/27 05:14:02;;;;;;;9.17;8.33;;;;;;;-145.94;75.16;76039.81;5134558;27;20208;-73
2023/07/27 05:16:30;;;;;;;12.90;11.63;;;;;;;-145.94;75.35;76037.75;5134587;27;20200;-73
2023/07/27 05:18:57;;;;;;;13.07;11.67;;;;;;;-145.94;75.47;76027.56;5134349;27;20184;-73
2023/07/27 05:21:24;;;;;;;12.77;10.93;;;;;;;-145.94;75.74;76025.53;5134395;27;20191;-73
2023/07/27 05:23:52;;;;;;;9.77;9.07;;;;;;;-145.94;76.15;76021.44;5134735;27;20212;-72
2023/07/27 05:26:18;;;;;;;10.87;9.63;;;;;;;-145.94;75.82;76019.41;5134248;27;20181;-72
2023/07/27 05:28:45;;;;;;;10.07;9.03;;;;;;;-145.94;76.35;76017.38;5134293;28;20646;-73
2023/07/27 05:31:11;;;;;;;10.47;7.43;;;;;;;-145.94;76.30;76019.41;5134080;28;20710;-73
2023/07/27 05:33:38;;;;;;;7.17;6.90;;;;;;;-145.94;76.48;76021.44;5134123;27;20205;-73
2023/07/27 05:36:04;;;;;;;7.17;6.53;;;;;;;-145.94;76.74;76005.16;5134362;28;20605;-73
2023/07/27 05:38:31;;;;;;;6.83;6.57;;;;;;;-145.94;76.92;76007.19;5134173;28;20225;-73
2023/07/27 05:41:00;;;;;;;6.20;5.90;;;;;;;-145.94;76.84;76007.19;5134082;28;20249;-73
2023/07/27 05:43:27;;;;;;;7.63;6.97;;;;;;;-145.94;76.89;76007.19;5134034;27;20277;-73
2023/07/27 05:45:54;;;;;;;6.93;6.43;;;;;;;-145.94;77.40;75988.84;5134181;28;20243;-72
2023/07/27 05:48:20;;;;;;;6.27;6.07;;;;;;;-145.94;77.04;75990.88;5134599;28;20199;-73
2023/07/27 05:50:47;;;;;;;5.83;5.63;;;;;;;-145.94;77.02;75990.88;5134223;28;20189;-73
2023/07/27 05:53:13;;;;;;;7.30;6.63;;;;;;;-145.94;77.37;75978.63;5134199;27;20208;-73
2023/07/27 05:55:40;;;;;;;9.87;6.83;;;;;;;-145.94;77.37;75976.59;5133899;28;20208;-73
2023/07/27 05:58:06;;;;;;;6.60;6.30;;;;;;;-145.94;76.84;75970.47;5133983;28;20197;-73
2023/07/27 06:00:50;;;;;;;6.40;6.10;;;;;;;-145.94;77.21;75970.47;5134485;28;20173;-73
2023/07/27 06:03:18;;;;;;;7.57;7.13;;;;;;;-145.94;77.62;75970.47;5133824;27;20219;-73
2023/07/27 06:05:45;;;;;;;7.27;6.30;;;;;;;-145.94;77.41;75974.56;5134423;28;20680;-73
2023/07/27 06:08:12;;;;;;;5.77;5.57;;;;;;;-145.94;77.11;75972.53;5133831;28;20189;-73
2023/07/27 06:10:38;;;;;;;5.00;4.67;;;;;;;-145.94;77.63;75974.56;5135224;27;20196;-73
2023/07/27 06:13:05;;;;;;;4.57;4.40;;;;;;;-145.94;77.42;75968.44;5137950;27;20212;-73
2023/07/27 06:15:31;;;;;;;4.10;4.10;;;;;;;-145.94;77.51;75968.44;5137640;27;20200;-73
2023/07/27 06:17:58;;;;;;;4.90;4.23;;;;;;;-145.94;77.64;75968.44;5137624;27;20192;-73
2023/07/27 06:20:24;;;;;;;3.87;3.83;;;;;;;-145.94;77.49;75962.34;5137929;27;20187;-74
2023/07/27 06:22:50;;;;;;;4.40;4.10;;;;;;;-145.94;77.28;75960.28;5137909;27;20566;-73
2023/07/27 06:25:17;;;;;;;7.10;6.43;;;;;;;-145.94;77.67;75962.34;5138129;27;20184;-73
2023/07/27 06:27:43;;;;;;;8.53;7.60;;;;;;;-145.94;77.37;75954.19;5137558;27;20185;-73
2023/07/27 06:30:12;;;;;;;6.90;6.50;;;;;;;-145.94;77.43;75954.19;5137717;27;20678;-73
2023/07/27 06:32:39;;;;;;;6.40;6.30;;;;;;;-145.94;77.28;75950.09;5137360;27;20197;-73
2023/07/27 06:35:06;;;;;;;5.87;5.67;;;;;;;-145.94;77.32;75948.06;5137299;27;20180;-73
2023/07/27 06:37:32;;;;;;;5.77;5.63;;;;;;;-145.94;77.74;75946.03;5137327;27;20535;-73
2023/07/27 06:39:59;;;;;;;5.37;5.17;;;;;;;-145.94;77.91;75931.75;5137256;27;20223;-73
2023/07/27 06:42:26;;;;;;;5.93;5.30;;;;;;;-145.94;77.52;75929.72;5137309;27;20200;-73
2023/07/27 06:44:52;;;;;;;5.73;5.47;;;;;;;-145.94;77.65;75933.78;5137255;27;20180;-74
2023/07/27 06:47:19;;;;;;;5.37;5.20;;;;;;;-145.94;77.63;75927.66;5137543;27;20172;-74
2023/07/27 06:49:45;;;;;;;3.80;3.53;;;;;;;-145.94;77.97;75921.56;5137450;27;20234;-73
2023/07/27 06:52:12;;;;;;;4.80;4.50;;;;;;;-145.94;77.83;75915.44;5137433;27;20644;-73
2023/07/27 06:54:39;;;;;;;4.27;4.20;;;;;;;-145.94;78.01;75913.41;5137112;27;20181;-73
2023/07/27 06:57:09;;;;;;;4.37;4.17;;;;;;;-145.94;78.35;75911.38;5137191;27;20204;-73
2023/07/27 06:59:37;;;;;;;5.00;4.80;;;;;;;-145.94;78.10;75901.16;5137323;27;20177;-73
2023/07/27 07:02:04;;;;;;;5.70;5.43;;;;;;;-145.94;78.73;75903.22;5136793;27;20594;-73
2023/07/27 07:04:31;;;;;;;5.00;4.90;;;;;;;-145.94;78.70;75886.91;5136846;27;20212;-73
2023/07/27 07:06:57;;;;;;;6.60;6.17;;;;;;;-145.94;78.95;75890.97;5118307;27;20192;-73
2023/07/27 07:09:24;;;;;;;5.23;5.13;;;;;;;-145.94;78.66;75876.69;5136978;27;20188;-73
2023/07/27 07:11:50;;;;;;;4.80;4.70;;;;;;;-145.94;78.82;75870.59;5136730;27;20195;-73
2023/07/27 07:14:17;;;;;;;4.80;4.70;;;;;;;-145.94;78.85;75874.66;5136590;27;20218;-73
2023/07/27 07:16:43;;;;;;;4.90;4.90;;;;;;;-145.94;78.76;75856.31;5136856;27;20253;-73
2023/07/27 07:19:10;;;;;;;4.67;4.57;;;;;;;-145.94;78.99;75864.47;5137138;27;20211;-73
2023/07/27 07:21:36;;;;;;;4.53;4.43;;;;;;;-145.94;79.02;75860.41;5136239;27;20233;-73
2023/07/27 07:24:03;;;;;;;4.07;4.07;;;;;;;-145.94;79.27;75850.19;5136372;27;20261;-73
2023/07/27 07:26:29;;;;;;;4.47;4.37;;;;;;;-145.94;79.33;75848.16;5137189;27;20181;-73
2023/07/27 07:28:56;;;;;;;4.70;4.60;;;;;;;-145.94;78.97;75844.09;5136356;27;20226;-73
2023/07/27 07:31:23;;;;;;;4.80;4.70;;;;;;;-145.94;79.33;75848.16;5137081;27;20204;-73
2023/07/27 07:33:50;;;;;;;4.50;4.43;;;;;;;-145.94;79.53;75844.09;5136193;27;20211;-73
2023/07/27 07:36:16;;;;;;;5.43;5.23;;;;;;;-145.94;79.63;75835.94;5136699;27;20211;-73
2023/07/27 07:38:43;;;;;;;5.37;5.27;;;;;;;-145.94;79.44;75829.81;5136675;27;20188;-73
2023/07/27 07:41:09;;;;;;;6.07;5.67;;;;;;;-145.94;79.59;75817.59;5136113;27;20653;-73
2023/07/27 07:43:35;;;;;;;4.90;4.80;;;;;;;-145.94;79.52;75811.47;5135956;27;20257;-73
2023/07/27 07:46:02;;;;;;;5.83;5.73;;;;;;;-145.94;79.79;75801.28;5136554;27;20210;-73
2023/07/27 07:48:29;;;;;;;5.83;5.53;;;;;;;-145.94;79.77;75807.38;5136177;27;20185;-73
2023/07/27 07:50:55;;;;;;;6.20;5.93;;;;;;;-145.94;79.94;75791.09;5135901;27;20185;-73
2023/07/27 07:53:21;;;;;;;5.60;5.40;;;;;;;-145.94;79.92;75791.09;5136018;27;20607;-73
2023/07/27 07:56:01;;;;;;;4.90;4.80;;;;;;;-145.94;79.66;75787.00;5135792;27;20227;-73
2023/07/27 07:58:27;;;;;;;4.60;4.60;;;;;;;-145.94;79.95;75787.00;5135761;27;20253;-73
2023/07/27 08:00:54;;;;;;;4.40;4.40;;;;;;;-145.94;80.19;75780.88;5136252;27;20185;-73
2023/07/27 08:03:20;;;;;;;4.20;4.10;;;;;;;-145.94;80.13;75764.56;5135785;27;20243;-73
2023/07/27 08:05:47;;;;;;;4.67;4.20;;;;;;;-145.94;80.30;75762.53;5136443;27;20639;-73
2023/07/27 08:08:13;;;;;;;4.30;4.20;;;;;;;-145.94;80.35;75760.50;5135591;27;20188;-74
2023/07/27 08:10:40;;;;;;;3.40;3.40;;;;;;;-145.94;80.26;75750.31;5135514;27;20654;-74
2023/07/27 08:13:06;;;;;;;6.33;4.10;;;;;;;-145.94;80.19;75758.47;5136012;27;20204;-73
2023/07/27 08:15:33;;;;;;;3.90;3.90;;;;;;;-145.94;80.50;75748.28;5135366;27;20185;-73
2023/07/27 08:17:59;;;;;;;3.40;3.40;;;;;;;-145.94;79.98;75744.19;5135393;27;20182;-73
2023/07/27 08:20:26;;;;;;;3.70;3.60;;;;;;;-145.94;79.96;75742.16;5135343;27;20183;-73
2023/07/27 08:22:53;;;;;;;3.63;3.63;;;;;;;-145.94;80.50;75742.16;5135439;27;20204;-73
2023/07/27 08:25:19;;;;;;;3.47;3.33;;;;;;;-145.94;80.33;75731.97;5135807;27;20189;-73
2023/07/27 08:27:48;;;;;;;2.50;2.50;;;;;;;-145.94;80.68;75725.84;5135179;27;20245;-73
2023/07/27 08:30:15;;;;;;;2.87;2.87;;;;;;;-145.94;80.42;75723.81;5135029;27;20200;-73
2023/07/27 08:32:41;;;;;;;3.43;3.37;;;;;;;-145.94;80.32;75713.63;5134813;27;20204;-73
2023/07/27 08:35:08;;;;;;;2.80;2.70;;;;;;;-145.94;80.70;75715.66;5134968;27;20204;-73
2023/07/27 08:37:35;;;;;;;2.53;2.53;;;;;;;-145.94;80.31;75709.53;5135241;27;20287;-73
2023/07/27 08:40:03;;;;;;;1.90;1.90;;;;;;;-145.94;80.47;75713.63;5135189;27;20200;-73
2023/07/27 08:42:31;;;;;;;2.20;2.20;;;;;;;-145.94;80.46;75697.31;5116443;27;20244;-73
2023/07/27 08:44:58;;;;;;;2.30;2.30;;;;;;;-145.94;80.70;75695.25;5134884;27;20188;-73
2023/07/27 08:47:26;;;;;;;2.20;2.10;;;;;;;-145.94;80.20;75678.97;5135342;27;20180;-73
2023/07/27 08:49:53;;;;;;;2.33;2.33;;;;;;;-145.94;80.58;75687.13;5135098;27;20542;-73
2023/07/27 08:52:23;;;;;;;2.37;2.37;;;;;;;-145.94;80.85;75685.06;5134697;27;20181;-73
2023/07/27 08:54:50;;;;;;;2.30;2.30;;;;;;;-145.94;80.70;75678.97;5135253;27;20611;-73
2023/07/27 08:57:16;;;;;;;2.03;2.03;;;;;;;-145.94;80.81;75683.03;5135168;27;20204;-73
2023/07/27 08:59:43;;;;;;;3.07;2.77;;;;;;;-145.94;80.65;75678.97;5134640;27;20270;-73
2023/07/27 09:02:09;;;;;;;2.37;2.37;;;;;;;-145.94;80.67;75678.97;5135143;27;20183;-73
2023/07/27 09:04:36;;;;;;;2.00;2.00;;;;;;;-145.94;80.72;75681.00;5116719;27;20542;-73
2023/07/27 09:07:06;;;;;;;1.90;1.90;;;;;;;-145.94;80.97;75676.91;5134587;27;20603;-73
2023/07/27 09:09:33;;;;;;;1.67;1.67;;;;;;;-145.94;81.23;75670.81;5135026;27;20628;-73
2023/07/27 09:12:03;;;;;;;2.23;2.13;;;;;;;-145.94;81.13;75664.69;5134400;27;20172;-73
2023/07/27 09:14:37;;;;;;;5.10;1.70;;;;;;;-145.94;81.46;75658.56;5134739;27;20184;-73
2023/07/27 09:17:04;;;;;;;1.67;1.67;;;;;;;-145.94;81.11;75656.53;5134839;27;20203;-73
2023/07/27 09:19:37;;;;;;;1.87;1.87;;;;;;;-145.94;80.71;75648.38;5134286;27;20181;-73
2023/07/27 09:22:03;;;;;;;1.90;1.90;;;;;;;-145.94;80.86;75654.50;5134745;27;20187;-73
2023/07/27 09:24:32;;;;;;;2.00;2.00;;;;;;;-145.94;81.16;75646.34;5134761;27;20181;-73
2023/07/27 09:27:03;;;;;;;1.83;1.73;;;;;;;-145.94;81.26;75644.31;5134489;27;20176;-74
2023/07/27 09:29:29;;;;;;;1.93;1.93;;;;;;;-145.94;81.20;75640.22;5134579;28;20545;-74
2023/07/27 09:32:00;;;;;;;1.60;1.60;;;;;;;-145.94;81.28;75644.31;5134461;28;20173;-74
2023/07/27 09:34:28;;;;;;;1.57;1.57;;;;;;;-145.94;81.43;75634.09;5134730;28;20191;-74
2023/07/27 09:36:56;;;;;;;1.40;1.40;;;;;;;-145.94;81.29;75630.03;5134330;28;20211;-74
2023/07/27 09:39:26;;;;;;;1.40;1.40;;;;;;;-145.94;81.47;75625.94;5134438;28;20219;-73
2023/07/27 09:41:53;;;;;;;1.70;1.70;;;;;;;-145.94;81.51;75619.84;5134682;28;20178;-73
2023/07/27 09:44:21;;;;;;;1.27;1.27;;;;;;;-145.94;81.37;75619.84;5116786;27;20613;-74
2023/07/27 09:46:48;;;;;;;1.40;1.40;;;;;;;-145.94;81.82;75613.72;5138650;27;20187;-74
2023/07/27 09:49:16;;;;;;;2.30;1.60;;;;;;;-145.94;81.50;75605.56;5138858;27;20195;-74
2023/07/27 09:51:43;;;;;;;1.10;1.10;;;;;;;-145.94;81.67;75603.53;5138551;27;20176;-74
2023/07/27 09:54:13;;;;;;;1.37;1.37;;;;;;;-145.94;81.53;75607.59;5138452;27;20226;-74
2023/07/27 09:56:40;;;;;;;1.30;1.30;;;;;;;-145.94;81.63;75597.41;5138363;27;20599;-74
2023/07/27 09:59:07;;;;;;;1.43;1.10;;;;;;;-145.94;81.88;75591.28;5138128;27;20191;-74
2023/07/27 10:01:34;;;;;;;1.17;1.17;;;;;;;-145.94;81.71;75593.34;5138408;27;20176;-74
2023/07/27 10:04:00;;;;;;;1.00;1.00;;;;;;;-145.94;81.81;75583.16;5138202;27;20690;-74
2023/07/27 10:06:29;;;;;;;2.33;1.33;;;;;;;-145.94;81.78;75583.16;5137971;27;20177;-74
2023/07/27 10:08:56;;;;;;;1.30;1.30;;;;;;;-145.94;81.98;75572.94;5136681;27;20187;-74
2023/07/27 10:11:52;;;;;;;1.50;1.50;;;;;;;-145.94;82.03;75570.91;5138427;27;20188;-74
2023/07/27 10:14:19;;;;;;;0.90;0.90;;;;;;;-145.94;82.15;75564.78;5137783;27;20217;-74
2023/07/27 10:16:59;;;;;;;1.23;1.23;;;;;;;-145.94;82.12;75552.56;5137937;27;20204;-74
2023/07/27 10:19:39;;;;;;;1.43;1.43;;;;;;;-145.94;81.61;75552.56;5138529;27;20539;-74
2023/07/27 10:22:08;;;;;;;1.43;1.43;;;;;;;-145.94;81.84;75542.38;5137634;27;20172;-74
2023/07/27 10:25:00;;;;;;;2.33;1.40;;;;;;;-145.94;81.69;75538.28;5138183;27;20573;-74
2023/07/27 10:27:54;;;;;;;1.60;1.60;;;;;;;-145.94;81.85;75534.22;5133967;27;20257;-74
2023/07/27 10:30:21;;;;;;;1.70;1.70;;;;;;;-145.94;82.04;75534.22;5137537;27;20188;-74
2023/07/27 10:33:07;;;;;;;1.60;1.60;;;;;;;-145.94;81.92;75528.09;5137370;27;20261;-74
2023/07/27 10:36:05;;;;;;;1.23;1.23;;;;;;;-145.94;81.86;75517.91;5137694;27;20184;-74
2023/07/27 10:38:32;;;;;;;1.40;1.40;;;;;;;-145.94;81.99;75519.94;5138028;27;20608;-74
2023/07/27 10:41:14;;;;;;;1.20;1.20;;;;;;;-145.94;81.86;75511.78;5137516;27;20184;-74
2023/07/27 10:44:08;;;;;;;1.20;1.20;;;;;;;-145.94;81.94;75505.69;5137435;27;20208;-74
2023/07/27 10:46:36;;;;;;;1.20;1.20;;;;;;;-145.94;82.03;75497.53;5137529;27;20169;-74
2023/07/27 10:49:12;;;;;;;1.90;1.30;;;;;;;-145.94;82.31;75493.44;5137732;27;20187;-74
2023/07/27 10:51:40;;;;;;;1.50;1.50;;;;;;;-145.94;82.27;75489.38;5137427;27;20177;-74
2023/07/27 10:54:09;;;;;;;1.57;1.57;;;;;;;-145.94;82.08;75487.34;5118634;27;20220;-74
2023/07/27 10:56:36;;;;;;;1.20;1.20;;;;;;;-145.94;82.06;75489.38;5136383;27;20275;-74
2023/07/27 10:59:03;;;;;;;1.20;1.20;;;;;;;-145.94;82.06;75489.38;5118602;27;20196;-74
2023/07/27 11:01:30;;;;;;;1.30;1.30;;;;;;;-145.94;81.95;75487.34;5136923;27;20196;-74
2023/07/27 11:03:57;;;;;;;1.10;1.10;;;;;;;-145.94;82.19;75475.09;5137614;27;20622;-74
2023/07/27 11:06:28;;;;;;;1.60;1.60;;;;;;;-145.94;82.29;75479.19;5137385;27;20177;-74
2023/07/27 11:08:56;;;;;;;1.60;1.60;;;;;;;-145.94;82.24;75466.94;5119182;27;20177;-74
2023/07/27 11:11:29;;;;;;;2.10;2.10;;;;;;;-145.94;82.15;75466.94;5136740;27;20176;-74
2023/07/27 11:14:04;;;;;;;3.53;3.40;;;;;;;-145.94;82.05;75450.63;5136661;27;20219;-73
2023/07/27 11:16:32;;;;;;;3.70;3.57;;;;;;;-145.94;81.84;75444.53;5136624;27;20172;-73
2023/07/27 11:19:02;;;;;;;3.83;3.63;;;;;;;-145.94;82.05;75444.53;5136882;27;20259;-74
2023/07/27 11:21:30;;;;;;;4.90;4.80;;;;;;;-145.94;82.01;75434.34;5118860;27;20537;-73
2023/07/27 11:23:57;;;;;;;5.53;5.37;;;;;;;-145.94;82.16;75420.06;5136447;27;20208;-74